| time (UTC) | temp F | wind direction | speed knots | gust knots | rain 1hr in | rain 24hr in | rain mn in | humidity % | barometer mb |
| 20260509074634 | 61 | 300 | 3.5 | 6.1 | 0.00 | 0.00 | 0.00 | 23 | 1015.0 |
| 20260509073634 | 62 | 13 | 0.9 | 5.2 | 0.00 | 0.00 | 0.00 | 23 | 1014.7 |
| 20260509072615 | 63 | 237 | 1.7 | 4.3 | 0.00 | 0.00 | 0.00 | 22 | 1014.5 |
| 20260509071616 | 63 | 242 | 2.6 | 6.1 | 0.00 | 0.00 | 0.00 | 22 | 1014.3 |
| 20260509070615 | 62 | 307 | 2.6 | 7.8 | 0.00 | 0.00 | 0.00 | 23 | 1014.3 |
| 20260509065647 | 62 | 312 | 5.2 | 10.4 | 0.00 | 0.00 | 0.00 | 24 | 1014.3 |
| 20260509064627 | 62 | 316 | 9.6 | 12.2 | 0.00 | 0.00 | 0.00 | 24 | 1014.2 |
| 20260509063626 | 62 | 343 | 6.1 | 11.3 | 0.00 | 0.00 | 0.00 | 25 | 1014.2 |
| 20260509062626 | 61 | 341 | 8.7 | 13.9 | 0.00 | 0.00 | 0.00 | 26 | 1014.2 |
| 20260509061630 | 60 | 338 | 7.0 | 10.4 | 0.00 | 0.00 | 0.00 | 29 | 1014.3 |
| 20260509060622 | 60 | 340 | 3.5 | 7.8 | 0.00 | 0.00 | 0.00 | 30 | 1014.3 |
| 20260509055614 | 59 | 350 | 4.3 | 7.0 | 0.00 | 0.00 | 0.00 | 31 | 1014.1 |
| 20260509054634 | 59 | 350 | 6.1 | 7.8 | 0.00 | 0.00 | 0.00 | 33 | 1014.0 |
| 20260509053635 | 60 | 350 | 6.1 | 8.7 | 0.00 | 0.00 | 0.00 | 32 | 1014.0 |
| 20260509052614 | 60 | 349 | 8.7 | 9.6 | 0.00 | 0.00 | 0.00 | 30 | 1013.9 |
| 20260509051614 | 61 | 342 | 7.8 | 9.6 | 0.00 | 0.00 | 0.00 | 30 | 1013.8 |
| 20260509050635 | 62 | 321 | 7.0 | 7.8 | 0.00 | 0.00 | 0.00 | 29 | 1013.8 |
| 20260509045626 | 62 | 355 | 7.8 | 9.6 | 0.00 | 0.00 | 0.00 | 27 | 1013.7 |
| 20260509044631 | 61 | 355 | 6.1 | 8.7 | 0.00 | 0.00 | 0.00 | 29 | 1013.7 |
| 20260509043631 | 62 | 347 | 7.0 | 7.8 | 0.00 | 0.00 | 0.00 | 29 | 1013.6 |
| 20260509042630 | 63 | 333 | 5.2 | 7.8 | 0.00 | 0.00 | 0.00 | 28 | 1013.5 |
| 20260509041629 | 64 | 328 | 6.1 | 10.4 | 0.00 | 0.00 | 0.00 | 27 | 1013.4 |
| 20260509040646 | 63 | 344 | 9.6 | 13.0 | 0.00 | 0.00 | 0.00 | 27 | 1013.3 |
| 20260509035632 | 65 | 346 | 11.3 | 14.8 | 0.00 | 0.00 | 0.00 | 26 | 1013.3 |
| 20260509034629 | 66 | 315 | 9.6 | 11.3 | 0.00 | 0.00 | 0.00 | 24 | 1013.1 |
| 20260509033626 | 67 | 348 | 9.6 | 16.5 | 0.00 | 0.00 | 0.00 | 23 | 1012.9 |
| 20260509032631 | 67 | 340 | 11.3 | 18.2 | 0.00 | 0.00 | 0.00 | 23 | 1013.0 |
| 20260509031629 | 66 | 341 | 8.7 | 13.9 | 0.00 | 0.00 | 0.00 | 24 | 1012.9 |
| 20260509030626 | 65 | 340 | 7.8 | 9.6 | 0.00 | 0.00 | 0.00 | 25 | 1012.8 |
| 20260509025655 | 65 | 349 | 6.1 | 9.6 | 0.00 | 0.00 | 0.00 | 24 | 1012.9 |
| 20260509024632 | 67 | 344 | 5.2 | 8.7 | 0.00 | 0.00 | 0.00 | 26 | 1012.7 |
| 20260509023629 | 68 | 332 | 6.1 | 8.7 | 0.00 | 0.00 | 0.00 | 27 | 1012.6 |
| 20260509022627 | 70 | 348 | 4.3 | 7.8 | 0.00 | 0.00 | 0.00 | 30 | 1012.5 |
| 20260509021625 | 73 | 236 | 1.7 | 9.6 | 0.00 | 0.00 | 0.00 | 24 | 1012.3 |
| 20260509020622 | 71 | 297 | 2.6 | 13.0 | 0.00 | 0.00 | 0.00 | 22 | 1012.2 |
| 20260509015616 | 71 | 228 | 1.7 | 7.8 | 0.00 | 0.00 | 0.00 | 28 | 1012.1 |
| 20260509014614 | 71 | 167 | 2.6 | 6.1 | 0.00 | 0.00 | 0.00 | 30 | 1012.1 |
| 20260509013633 | 71 | 159 | 1.7 | 5.2 | 0.00 | 0.00 | 0.00 | 33 | 1012.0 |
| 20260509012631 | 72 | 160 | 0.9 | 5.2 | 0.00 | 0.00 | 0.00 | 30 | 1011.8 |
| 20260509011630 | 72 | 160 | 2.6 | 7.0 | 0.00 | 0.00 | 0.00 | 29 | 1011.9 |
| 20260509010629 | 72 | 158 | 2.6 | 7.0 | 0.00 | 0.00 | 0.00 | 31 | 1011.9 |
| 20260509005625 | 72 | 158 | 1.7 | 5.2 | 0.00 | 0.00 | 0.00 | 29 | 1012.0 |
| 20260509004623 | 72 | 158 | 1.7 | 4.3 | 0.00 | 0.00 | 0.00 | 28 | 1012.0 |
| 20260509003644 | 72 | 158 | 0.9 | 5.2 | 0.00 | 0.00 | 0.00 | 30 | 1012.1 |
| 20260509002621 | 72 | 158 | 3.5 | 6.1 | 0.00 | 0.00 | 0.00 | 30 | 1012.0 |
| 20260509001628 | 72 | 158 | 2.6 | 7.8 | 0.00 | 0.00 | 0.00 | 29 | 1012.0 |
| 20260509000628 | 73 | 161 | 7.0 | 9.6 | 0.00 | 0.00 | 0.00 | 27 | 1012.1 |
| 20260508235619 | 74 | 188 | 5.2 | 8.7 | 0.00 | 0.00 | 0.00 | 26 | 1012.1 |
| 20260508234619 | 73 | 153 | 6.1 | 10.4 | 0.00 | 0.00 | 0.00 | 27 | 1012.1 |
| 20260508233622 | 74 | 151 | 8.7 | 12.2 | 0.00 | 0.00 | 0.00 | 25 | 1012.1 |
| 20260508232623 | 74 | 163 | 9.6 | 13.9 | 0.00 | 0.00 | 0.00 | 25 | 1012.1 |
| 20260508231623 | 74 | 147 | 6.1 | 13.0 | 0.00 | 0.00 | 0.00 | 25 | 1012.1 |
| 20260508230622 | 74 | 154 | 7.8 | 12.2 | 0.00 | 0.00 | 0.00 | 26 | 1012.2 |
| 20260508225633 | 74 | 167 | 7.0 | 12.2 | 0.00 | 0.00 | 0.00 | 26 | 1012.4 |
| 20260508224634 | 74 | 159 | 7.8 | 13.9 | 0.00 | 0.00 | 0.00 | 25 | 1012.4 |
| 20260508223654 | 74 | 154 | 9.6 | 15.6 | 0.00 | 0.00 | 0.00 | 25 | 1012.5 |
| 20260508222617 | 74 | 142 | 12.2 | 16.5 | 0.00 | 0.00 | 0.00 | 26 | 1012.7 |
| 20260508221618 | 76 | 159 | 7.8 | 14.8 | 0.00 | 0.00 | 0.00 | 23 | 1012.7 |
| 20260508220618 | 77 | 256 | 7.0 | 13.0 | 0.00 | 0.00 | 0.00 | 21 | 1012.7 |
| 20260508215625 | 76 | 230 | 8.7 | 12.2 | 0.00 | 0.00 | 0.00 | 20 | 1012.9 |
| 20260508214624 | 76 | 237 | 7.8 | 13.0 | 0.00 | 0.00 | 0.00 | 20 | 1013.1 |
| 20260508213623 | 75 | 225 | 11.3 | 14.8 | 0.00 | 0.00 | 0.00 | 20 | 1013.1 |
| 20260508212624 | 75 | 253 | 7.8 | 13.0 | 0.00 | 0.00 | 0.00 | 22 | 1013.3 |
| 20260508211625 | 75 | 179 | 1.7 | 8.7 | 0.00 | 0.00 | 0.00 | 20 | 1013.3 |
| 20260508210628 | 75 | 204 | 5.2 | 12.2 | 0.00 | 0.00 | 0.00 | 20 | 1013.5 |
| 20260508205622 | 74 | 216 | 4.3 | 10.4 | 0.00 | 0.00 | 0.00 | 21 | 1013.6 |
| 20260508204620 | 74 | 232 | 7.8 | 13.0 | 0.00 | 0.00 | 0.00 | 22 | 1013.8 |
| 20260508203620 | 74 | 238 | 7.8 | 13.9 | 0.00 | 0.00 | 0.00 | 21 | 1013.7 |
| 20260508202621 | 75 | 269 | 7.0 | 12.2 | 0.00 | 0.00 | 0.00 | 21 | 1013.8 |
| 20260508201620 | 75 | 249 | 3.5 | 13.9 | 0.00 | 0.00 | 0.00 | 20 | 1013.9 |
| 20260508200625 | 73 | 265 | 2.6 | 13.0 | 0.00 | 0.00 | 0.00 | 22 | 1014.0 |
| 20260508195617 | 74 | 240 | 5.2 | 13.9 | 0.00 | 0.00 | 0.00 | 22 | 1014.1 |
| 20260508194616 | 73 | 242 | 9.6 | 17.4 | 0.00 | 0.00 | 0.00 | 22 | 1014.1 |
| 20260508193614 | 73 | 235 | 7.8 | 13.0 | 0.00 | 0.00 | 0.00 | 22 | 1014.3 |
| 20260508192635 | 74 | 253 | 7.0 | 15.6 | 0.00 | 0.00 | 0.00 | 21 | 1014.4 |
| 20260508191615 | 75 | 255 | 11.3 | 15.6 | 0.00 | 0.00 | 0.00 | 21 | 1014.5 |
| 20260508190615 | 74 | 263 | 8.7 | 14.8 | 0.00 | 0.00 | 0.00 | 21 | 1014.6 |
| 20260508185629 | 74 | 331 | 7.0 | 17.4 | 0.00 | 0.00 | 0.00 | 21 | 1014.7 |
| 20260508184633 | 74 | 265 | 7.0 | 13.9 | 0.00 | 0.00 | 0.00 | 23 | 1014.8 |
| 20260508183632 | 73 | 270 | 8.7 | 12.2 | 0.00 | 0.00 | 0.00 | 22 | 1014.9 |
| 20260508182631 | 72 | 295 | 6.1 | 11.3 | 0.00 | 0.00 | 0.00 | 23 | 1015.0 |
| 20260508181630 | 74 | 244 | 4.3 | 13.0 | 0.00 | 0.00 | 0.00 | 23 | 1015.1 |
| 20260508180620 | 72 | 290 | 6.1 | 12.2 | 0.00 | 0.00 | 0.00 | 23 | 1015.1 |
| 20260508175632 | 73 | 269 | 6.1 | 14.8 | 0.00 | 0.00 | 0.00 | 24 | 1015.3 |
| 20260508174632 | 71 | 288 | 9.6 | 13.9 | 0.00 | 0.00 | 0.00 | 25 | 1015.3 |
| 20260508173615 | 70 | 230 | 5.2 | 10.4 | 0.00 | 0.00 | 0.00 | 26 | 1015.4 |
| 20260508172616 | 69 | 238 | 7.0 | 14.8 | 0.00 | 0.00 | 0.00 | 25 | 1015.4 |
| 20260508171614 | 69 | 238 | 6.1 | 9.6 | 0.00 | 0.00 | 0.00 | 27 | 1015.4 |
| 20260508170655 | 68 | 254 | 3.5 | 7.0 | 0.00 | 0.00 | 0.00 | 28 | 1015.5 |
| 20260508165646 | 67 | 246 | 3.5 | 7.0 | 0.00 | 0.00 | 0.00 | 26 | 1015.5 |
| 20260508164627 | 67 | 200 | 3.5 | 7.0 | 0.00 | 0.00 | 0.00 | 28 | 1015.5 |
| 20260508163626 | 66 | 202 | 3.5 | 7.0 | 0.00 | 0.00 | 0.00 | 30 | 1015.5 |
| 20260508162628 | 66 | 154 | 5.2 | 7.0 | 0.00 | 0.00 | 0.00 | 29 | 1015.4 |
| 20260508161631 | 65 | 155 | 3.5 | 7.0 | 0.00 | 0.00 | 0.00 | 33 | 1015.5 |
| 20260508160632 | 64 | 160 | 3.5 | 5.2 | 0.00 | 0.00 | 0.00 | 35 | 1015.5 |
| 20260508155623 | 63 | 160 | 3.5 | 5.2 | 0.00 | 0.00 | 0.00 | 34 | 1015.6 |
| 20260508154644 | 62 | 160 | 3.5 | 6.1 | 0.00 | 0.00 | 0.00 | 37 | 1015.6 |
| 20260508153622 | 60 | 162 | 2.6 | 7.8 | 0.00 | 0.00 | 0.00 | 37 | 1015.6 |
| 20260508152620 | 60 | 201 | 2.6 | 7.8 | 0.00 | 0.00 | 0.00 | 47 | 1015.6 |
| 20260508151622 | 62 | 202 | 6.1 | 7.8 | 0.00 | 0.00 | 0.00 | 46 | 1015.6 |
| 20260508150644 | 62 | 343 | 2.6 | 3.5 | 0.00 | 0.00 | 0.00 | 41 | 1015.4 |
| 20260508145618 | 60 | 343 | 0.0 | 3.5 | 0.00 | 0.00 | 0.00 | 39 | 1015.4 |
| 20260508144618 | 59 | 343 | 3.5 | 4.3 | 0.00 | 0.00 | 0.00 | 47 | 1015.3 |
| 20260508143639 | 56 | 342 | 1.7 | 4.3 | 0.00 | 0.00 | 0.00 | 42 | 1015.3 |
| 20260508142617 | 55 | 342 | 2.6 | 3.5 | 0.00 | 0.00 | 0.00 | 53 | 1015.3 |
| 20260508141618 | 53 | 342 | 0.0 | 3.5 | 0.00 | 0.00 | 0.00 | 56 | 1015.1 |
| 20260508140617 | 54 | 342 | 2.6 | 4.3 | 0.00 | 0.00 | 0.00 | 52 | 1015.1 |
| 20260508135631 | 57 | 342 | 0.0 | 0.0 | 0.00 | 0.00 | 0.00 | 43 | 1015.1 |
| 20260508134613 | 55 | 342 | 0.0 | 1.7 | 0.00 | 0.00 | 0.00 | 45 | 1015.0 |
| 20260508133635 | 54 | 342 | 0.0 | 0.0 | 0.00 | 0.00 | 0.00 | 49 | 1014.8 |
| 20260508132615 | 53 | 342 | 0.0 | 0.9 | 0.00 | 0.00 | 0.00 | 53 | 1014.6 |
| 20260508131614 | 54 | 342 | 0.0 | 2.6 | 0.00 | 0.00 | 0.00 | 50 | 1014.5 |
| 20260508130634 | 54 | 342 | 0.9 | 7.0 | 0.00 | 0.00 | 0.00 | 47 | 1014.4 |
| 20260508125625 | 53 | 342 | 6.1 | 7.8 | 0.00 | 0.00 | 0.00 | 46 | 1014.3 |
| 20260508124624 | 52 | 340 | 7.0 | 7.8 | 0.00 | 0.00 | 0.00 | 47 | 1014.1 |
| 20260508123628 | 52 | 339 | 1.7 | 3.5 | 0.00 | 0.00 | 0.00 | 46 | 1014.0 |
| 20260508122627 | 53 | 339 | 1.7 | 5.2 | 0.00 | 0.00 | 0.00 | 45 | 1013.9 |
| 20260508121626 | 54 | 339 | 5.2 | 7.8 | 0.00 | 0.00 | 0.00 | 43 | 1013.9 |
| 20260508120629 | 54 | 338 | 7.8 | 8.7 | 0.00 | 0.00 | 0.00 | 43 | 1013.8 |
| 20260508115621 | 53 | 338 | 8.7 | 9.6 | 0.00 | 0.00 | 0.00 | 44 | 1013.7 |
| 20260508114621 | 53 | 337 | 7.0 | 7.8 | 0.00 | 0.00 | 0.00 | 45 | 1013.6 |
| 20260508113621 | 53 | 339 | 5.2 | 7.0 | 0.00 | 0.00 | 0.00 | 45 | 1013.5 |
| 20260508112623 | 53 | 340 | 1.7 | 3.5 | 0.00 | 0.00 | 0.00 | 45 | 1013.5 |
| 20260508111622 | 54 | 340 | 0.0 | 1.7 | 0.00 | 0.00 | 0.00 | 45 | 1013.4 |
| 20260508110621 | 53 | 340 | 1.7 | 7.8 | 0.00 | 0.00 | 0.00 | 46 | 1013.4 |
| 20260508105636 | 53 | 340 | 6.1 | 7.0 | 0.00 | 0.00 | 0.00 | 46 | 1013.3 |
| 20260508104616 | 52 | 340 | 4.3 | 5.2 | 0.00 | 0.00 | 0.00 | 47 | 1013.3 |
| 20260508103615 | 52 | 340 | 6.1 | 7.8 | 0.00 | 0.00 | 0.00 | 48 | 1013.3 |
| 20260508102614 | 52 | 340 | 6.1 | 7.8 | 0.00 | 0.00 | 0.00 | 48 | 1013.2 |
| 20260508101619 | 52 | 340 | 5.2 | 7.0 | 0.00 | 0.00 | 0.00 | 48 | 1013.2 |
| 20260508100617 | 52 | 340 | 7.8 | 7.8 | 0.00 | 0.00 | 0.00 | 48 | 1013.1 |
| 20260508095629 | 52 | 339 | 7.8 | 7.8 | 0.00 | 0.00 | 0.00 | 47 | 1013.1 |
| 20260508094629 | 53 | 337 | 5.2 | 7.0 | 0.00 | 0.00 | 0.00 | 45 | 1013.1 |
| 20260508093628 | 53 | 337 | 1.7 | 4.3 | 0.00 | 0.00 | 0.00 | 45 | 1013.1 |
| 20260508092628 | 52 | 337 | 1.7 | 7.0 | 0.00 | 0.00 | 0.00 | 47 | 1013.1 |
| 20260508091626 | 52 | 337 | 5.2 | 7.8 | 0.00 | 0.00 | 0.00 | 47 | 1013.1 |
| 20260508090625 | 52 | 336 | 6.1 | 7.0 | 0.00 | 0.00 | 0.00 | 48 | 1013.1 |
| 20260508085642 | 52 | 336 | 4.3 | 7.8 | 0.00 | 0.00 | 0.00 | 49 | 1013.1 |
| 20260508084620 | 53 | 336 | 6.1 | 7.8 | 0.00 | 0.00 | 0.00 | 47 | 1013.0 |
| 20260508083620 | 54 | 329 | 5.2 | 7.8 | 0.00 | 0.00 | 0.00 | 44 | 1013.1 |
| 20260508082619 | 56 | 324 | 4.3 | 5.2 | 0.00 | 0.00 | 0.00 | 42 | 1013.0 |
| 20260508081619 | 55 | 324 | 1.7 | 4.3 | 0.00 | 0.00 | 0.00 | 42 | 1013.1 |
| 20260508080618 | 56 | 324 | 1.7 | 4.3 | 0.00 | 0.00 | 0.00 | 42 | 1013.1 |
| 20260508075632 | 55 | 324 | 1.7 | 5.2 | 0.00 | 0.00 | 0.00 | 43 | 1013.1 |